createdAt,value
2017-08-07T00:00:58.738Z,997.2
2017-08-07T00:01:59.393Z,997.2
2017-08-07T00:03:00.041Z,997.2
2017-08-07T00:04:00.694Z,997.2
2017-08-07T00:05:01.631Z,997.2
2017-08-07T00:06:02.284Z,997.2
2017-08-07T00:07:02.971Z,997.2
2017-08-07T00:08:03.623Z,997.2
2017-08-07T00:09:04.274Z,997.2
2017-08-07T00:10:05.181Z,997.2
2017-08-07T00:11:05.830Z,997.2
2017-08-07T00:12:06.481Z,997.2
2017-08-07T00:13:07.136Z,997.2
2017-08-07T00:14:07.786Z,997.2
2017-08-07T00:15:08.689Z,997.3
2017-08-07T00:16:09.342Z,997.3
2017-08-07T00:17:09.994Z,997.3
2017-08-07T00:18:10.646Z,997.3
2017-08-07T00:19:11.302Z,997.2
2017-08-07T00:20:12.252Z,997.2
2017-08-07T00:21:12.902Z,997.3
2017-08-07T00:22:13.563Z,997.2
2017-08-07T00:23:14.206Z,997.2
2017-08-07T00:24:14.859Z,997.2
2017-08-07T00:25:15.761Z,997.2
2017-08-07T00:26:16.413Z,997.2
2017-08-07T00:27:17.065Z,997.2
2017-08-07T00:28:17.717Z,997.3
2017-08-07T00:29:18.406Z,997.3
2017-08-07T00:30:19.358Z,997.3
2017-08-07T00:31:20.047Z,997.3
2017-08-07T00:32:20.699Z,997.3
2017-08-07T00:33:21.351Z,997.3
2017-08-07T00:34:22.002Z,997.3
2017-08-07T00:35:22.905Z,997.2
2017-08-07T00:36:23.556Z,997.3
2017-08-07T00:37:24.209Z,997.2
2017-08-07T00:38:24.862Z,997.2
2017-08-07T00:39:25.512Z,997.2
2017-08-07T00:40:26.465Z,997.2
2017-08-07T00:41:27.116Z,997.2
2017-08-07T00:42:27.769Z,997.2
2017-08-07T00:43:28.421Z,997.2
2017-08-07T00:44:29.072Z,997.2
2017-08-07T00:45:29.976Z,997.2
2017-08-07T00:46:30.628Z,997.2
2017-08-07T00:47:31.281Z,997.2
2017-08-07T00:48:31.932Z,997.2
2017-08-07T00:49:32.585Z,997.3
2017-08-07T00:50:33.486Z,997.2
2017-08-07T00:51:34.137Z,997.2
2017-08-07T00:52:34.791Z,997.2
2017-08-07T00:53:35.479Z,997.2
2017-08-07T00:54:36.130Z,997.2
2017-08-07T00:55:37.083Z,997.2
2017-08-07T00:56:37.737Z,997.2
2017-08-07T00:57:38.388Z,997.2
2017-08-07T00:58:39.039Z,997.2
2017-08-07T00:59:39.691Z,997.2
2017-08-07T01:00:40.643Z,997.2
2017-08-07T01:01:41.296Z,997.2
2017-08-07T01:02:41.985Z,997.2
2017-08-07T01:03:42.637Z,997.2
2017-08-07T01:04:43.289Z,997.2
2017-08-07T01:05:44.241Z,997.2
2017-08-07T01:06:44.894Z,997.2
2017-08-07T01:07:45.579Z,997.2
2017-08-07T01:08:46.232Z,997.2
2017-08-07T01:09:46.885Z,997.2
2017-08-07T01:10:47.788Z,997.2
2017-08-07T01:11:48.441Z,997.2
2017-08-07T01:12:49.092Z,997.2
2017-08-07T01:13:49.780Z,997.2
2017-08-07T01:14:50.433Z,997.2
2017-08-07T01:15:51.337Z,997.2
2017-08-07T01:16:51.984Z,997.2
2017-08-07T01:17:52.639Z,997.2
2017-08-07T01:18:53.323Z,997.2
2017-08-07T01:19:53.981Z,997.1
2017-08-07T01:20:54.965Z,997.1
2017-08-07T01:21:55.618Z,997.1
2017-08-07T01:22:56.271Z,997.1
2017-08-07T01:23:56.922Z,997.2
2017-08-07T01:24:57.610Z,997.2
2017-08-07T01:25:58.513Z,997.2
2017-08-07T01:26:59.166Z,997.2
2017-08-07T01:27:59.821Z,997.2
2017-08-07T01:29:00.469Z,997.1
2017-08-07T01:30:01.121Z,997.1
2017-08-07T01:31:02.073Z,997.1
2017-08-07T01:32:02.725Z,997.1
2017-08-07T01:33:03.376Z,997.1
2017-08-07T01:34:04.028Z,997.1
2017-08-07T01:35:04.683Z,997.1
2017-08-07T01:36:05.619Z,997.1
2017-08-07T01:37:06.281Z,997.1
2017-08-07T01:38:06.934Z,997.0
2017-08-07T01:39:07.585Z,997.0
2017-08-07T01:40:08.238Z,997.0
2017-08-07T01:41:09.190Z,997.0
2017-08-07T01:42:09.849Z,997.0
2017-08-07T01:43:10.500Z,997.0
2017-08-07T01:44:11.156Z,997.0
2017-08-07T01:45:11.843Z,997.0
2017-08-07T01:46:12.745Z,996.9
2017-08-07T01:47:13.397Z,997.0
2017-08-07T01:48:14.049Z,996.9
2017-08-07T01:49:14.701Z,997.0
2017-08-07T01:50:15.353Z,997.0
2017-08-07T01:51:16.254Z,997.0
2017-08-07T01:52:16.908Z,997.0
2017-08-07T01:53:17.559Z,997.0
2017-08-07T01:54:18.211Z,996.9
2017-08-07T01:55:18.863Z,997.0
2017-08-07T01:56:19.818Z,997.0
2017-08-07T01:57:20.469Z,997.0
2017-08-07T01:58:21.121Z,996.9
2017-08-07T01:59:21.772Z,996.9
2017-08-07T02:00:22.426Z,996.9
2017-08-07T02:01:23.327Z,996.9
2017-08-07T02:02:23.979Z,996.8
2017-08-07T02:03:24.632Z,996.8
2017-08-07T02:04:25.284Z,996.8
2017-08-07T02:05:25.935Z,996.8
2017-08-07T02:06:26.840Z,996.8
2017-08-07T02:07:27.494Z,996.8
2017-08-07T02:08:28.148Z,996.8
2017-08-07T02:09:28.806Z,996.8
2017-08-07T02:10:29.451Z,996.9
2017-08-07T02:11:30.404Z,996.8
2017-08-07T02:12:31.056Z,996.9
2017-08-07T02:13:31.707Z,996.9
2017-08-07T02:14:32.359Z,996.9
2017-08-07T02:15:33.013Z,996.9
2017-08-07T02:16:33.965Z,996.9
2017-08-07T02:17:34.618Z,996.9
2017-08-07T02:18:35.270Z,996.9
2017-08-07T02:19:35.922Z,996.8
2017-08-07T02:20:36.574Z,996.9
2017-08-07T02:21:37.532Z,996.9
2017-08-07T02:22:38.182Z,996.9
2017-08-07T02:23:38.832Z,996.8
2017-08-07T02:24:39.483Z,996.8
2017-08-07T02:25:40.136Z,996.9
2017-08-07T02:26:41.124Z,996.9
2017-08-07T02:27:41.778Z,996.9
2017-08-07T02:28:42.431Z,996.9
2017-08-07T02:29:43.082Z,996.9
2017-08-07T02:30:43.733Z,996.9
2017-08-07T02:31:44.637Z,996.9
2017-08-07T02:32:45.290Z,996.8
2017-08-07T02:33:45.942Z,996.8
2017-08-07T02:34:46.595Z,996.9
2017-08-07T02:35:47.246Z,996.8
2017-08-07T02:36:48.185Z,996.9
2017-08-07T02:37:48.838Z,996.9
2017-08-07T02:38:49.490Z,996.9
2017-08-07T02:39:50.143Z,996.8
2017-08-07T02:40:50.795Z,996.9
2017-08-07T02:41:51.747Z,996.9
2017-08-07T02:42:52.400Z,996.9
2017-08-07T02:43:53.053Z,996.9
2017-08-07T02:44:53.705Z,996.9
2017-08-07T02:45:54.356Z,996.9
2017-08-07T02:46:55.309Z,996.9
2017-08-07T02:47:55.961Z,996.9
2017-08-07T02:48:56.611Z,996.8
2017-08-07T02:49:57.265Z,996.8
2017-08-07T02:50:57.928Z,996.8
2017-08-07T02:51:58.830Z,996.8
2017-08-07T02:52:59.482Z,996.8
2017-08-07T02:54:00.134Z,996.8
2017-08-07T02:55:00.822Z,996.7
2017-08-07T02:56:01.476Z,996.8
2017-08-07T02:57:02.429Z,996.8
2017-08-07T02:58:03.080Z,996.8
2017-08-07T02:59:03.734Z,996.7
2017-08-07T03:00:04.386Z,996.8
2017-08-07T03:01:05.039Z,996.7
2017-08-07T03:02:05.941Z,996.7
2017-08-07T03:03:06.592Z,996.7
2017-08-07T03:04:07.246Z,996.7
2017-08-07T03:05:07.898Z,996.7
2017-08-07T03:06:08.586Z,996.7
2017-08-07T03:07:09.539Z,996.7
2017-08-07T03:08:10.192Z,996.7
2017-08-07T03:09:10.845Z,996.7
2017-08-07T03:10:11.534Z,996.7
2017-08-07T03:11:12.189Z,996.7
2017-08-07T03:12:13.140Z,996.7
2017-08-07T03:13:13.792Z,996.7
2017-08-07T03:14:14.445Z,996.7
2017-08-07T03:15:15.097Z,996.7
2017-08-07T03:16:15.768Z,996.7
2017-08-07T03:17:16.650Z,996.7
2017-08-07T03:18:17.305Z,996.7
2017-08-07T03:19:17.994Z,996.7
2017-08-07T03:20:18.647Z,996.7
2017-08-07T03:21:19.298Z,996.7
2017-08-07T03:22:20.202Z,996.7
2017-08-07T03:23:20.854Z,996.6
2017-08-07T03:24:21.505Z,996.6
2017-08-07T03:25:22.158Z,996.6
2017-08-07T03:26:22.811Z,996.6
2017-08-07T03:27:23.713Z,996.6
2017-08-07T03:28:24.368Z,996.6
2017-08-07T03:29:25.022Z,996.7
2017-08-07T03:30:25.674Z,996.6
2017-08-07T03:31:26.327Z,996.6
2017-08-07T03:32:27.281Z,996.6
2017-08-07T03:33:27.935Z,996.6
2017-08-07T03:34:28.587Z,996.6
2017-08-07T03:35:29.246Z,996.6
2017-08-07T03:36:29.899Z,996.6
2017-08-07T03:37:30.805Z,996.6
2017-08-07T03:38:31.457Z,996.5
2017-08-07T03:39:32.110Z,996.6
2017-08-07T03:40:32.765Z,996.5
2017-08-07T03:41:33.425Z,996.5
2017-08-07T03:42:34.322Z,996.6
2017-08-07T03:43:34.977Z,996.6
2017-08-07T03:44:35.631Z,996.5
2017-08-07T03:45:36.289Z,996.5
2017-08-07T03:46:36.939Z,996.5
2017-08-07T03:47:37.846Z,996.5
2017-08-07T03:48:38.499Z,996.5
2017-08-07T03:49:39.151Z,996.4
2017-08-07T03:50:39.806Z,996.5
2017-08-07T03:51:40.460Z,996.5
2017-08-07T03:52:41.415Z,996.5
2017-08-07T03:53:42.068Z,996.5
2017-08-07T03:54:42.725Z,996.5
2017-08-07T03:55:43.379Z,996.5
2017-08-07T03:56:44.032Z,996.5
2017-08-07T03:57:44.937Z,996.4
2017-08-07T03:58:45.597Z,996.4
2017-08-07T03:59:46.256Z,996.4
2017-08-07T04:00:46.905Z,996.4
2017-08-07T04:01:47.560Z,996.3
2017-08-07T04:02:48.465Z,996.3
2017-08-07T04:03:49.121Z,996.4
2017-08-07T04:04:49.775Z,996.3
2017-08-07T04:05:50.434Z,996.3
2017-08-07T04:06:51.087Z,996.4
2017-08-07T04:07:51.992Z,996.3
2017-08-07T04:08:52.646Z,996.3
2017-08-07T04:09:53.302Z,996.3
2017-08-07T04:10:53.961Z,996.3
2017-08-07T04:11:54.612Z,996.3
2017-08-07T04:12:55.517Z,996.3
2017-08-07T04:13:56.179Z,996.2
2017-08-07T04:14:56.828Z,996.2
2017-08-07T04:15:57.483Z,996.3
2017-08-07T04:16:58.140Z,996.2
2017-08-07T04:17:59.097Z,996.2
2017-08-07T04:18:59.752Z,996.3
2017-08-07T04:20:00.408Z,996.3
2017-08-07T04:21:01.064Z,996.3
2017-08-07T04:22:01.722Z,996.2
2017-08-07T04:23:02.629Z,996.3
2017-08-07T04:24:03.284Z,996.3
2017-08-07T04:25:03.941Z,996.3
2017-08-07T04:26:04.599Z,996.4
2017-08-07T04:27:05.257Z,996.3
2017-08-07T04:28:06.214Z,996.3
2017-08-07T04:29:06.870Z,996.3
2017-08-07T04:30:07.527Z,996.3
2017-08-07T04:31:08.183Z,996.3
2017-08-07T04:32:08.843Z,996.2
2017-08-07T04:33:09.785Z,996.3
2017-08-07T04:34:10.441Z,996.3
2017-08-07T04:35:11.097Z,996.2
2017-08-07T04:36:11.754Z,996.2
2017-08-07T04:37:12.409Z,996.3
2017-08-07T04:38:13.366Z,996.2
2017-08-07T04:39:14.023Z,996.2
2017-08-07T04:40:14.678Z,996.2
2017-08-07T04:41:15.335Z,996.3
2017-08-07T04:42:15.991Z,996.3
2017-08-07T04:43:16.948Z,996.3
2017-08-07T04:44:17.605Z,996.3
2017-08-07T04:45:18.260Z,996.2
2017-08-07T04:46:18.919Z,996.2
2017-08-07T04:47:19.574Z,996.2
2017-08-07T04:48:20.480Z,996.2
2017-08-07T04:49:21.136Z,996.2
2017-08-07T04:50:21.794Z,996.2
2017-08-07T04:51:22.454Z,996.2
2017-08-07T04:52:23.107Z,996.3
2017-08-07T04:53:24.014Z,996.2
2017-08-07T04:54:24.671Z,996.2
2017-08-07T04:55:25.328Z,996.2
2017-08-07T04:56:25.985Z,996.2
2017-08-07T04:57:26.642Z,996.3
2017-08-07T04:58:27.549Z,996.3
2017-08-07T04:59:28.207Z,996.2
2017-08-07T05:00:28.862Z,996.3
2017-08-07T05:01:29.519Z,996.3
2017-08-07T05:02:30.175Z,996.3
2017-08-07T05:03:31.093Z,996.3
2017-08-07T05:04:31.751Z,996.3
2017-08-07T05:05:32.408Z,996.3
2017-08-07T05:06:33.064Z,996.3
2017-08-07T05:07:33.719Z,996.3
2017-08-07T05:08:34.630Z,996.3
2017-08-07T05:09:35.284Z,996.2
2017-08-07T05:10:35.939Z,996.3
2017-08-07T05:11:36.595Z,996.3
2017-08-07T05:12:37.253Z,996.3
2017-08-07T05:13:38.209Z,996.3
2017-08-07T05:14:38.866Z,996.3
2017-08-07T05:15:39.523Z,996.3
2017-08-07T05:16:40.178Z,996.3
2017-08-07T05:17:40.836Z,996.3
2017-08-07T05:18:41.792Z,996.3
2017-08-07T05:19:42.447Z,996.3
2017-08-07T05:20:43.107Z,996.3
2017-08-07T05:21:43.759Z,996.3
2017-08-07T05:22:44.419Z,996.3
2017-08-07T05:23:45.324Z,996.3
2017-08-07T05:24:45.980Z,996.3
2017-08-07T05:25:46.640Z,996.3
2017-08-07T05:26:47.293Z,996.3
2017-08-07T05:27:47.949Z,996.3
2017-08-07T05:28:48.906Z,996.4
2017-08-07T05:29:49.563Z,996.3
2017-08-07T05:30:50.260Z,996.3
2017-08-07T05:31:51.012Z,996.3
2017-08-07T05:32:51.701Z,996.3
2017-08-07T05:33:52.609Z,996.3
2017-08-07T05:34:53.265Z,996.3
2017-08-07T05:35:53.931Z,996.3
2017-08-07T05:36:54.580Z,996.3
2017-08-07T05:37:55.239Z,996.3
2017-08-07T05:38:56.148Z,996.3
2017-08-07T05:39:56.806Z,996.3
2017-08-07T05:40:57.464Z,996.3
2017-08-07T05:41:58.120Z,996.3
2017-08-07T05:42:58.776Z,996.3
2017-08-07T05:43:59.687Z,996.3
2017-08-07T05:45:00.338Z,996.3
2017-08-07T05:46:00.994Z,996.3
2017-08-07T05:47:01.652Z,996.2
2017-08-07T05:48:02.308Z,996.2
2017-08-07T05:49:03.216Z,996.3
2017-08-07T05:50:03.872Z,996.3
2017-08-07T05:51:04.534Z,996.2
2017-08-07T05:52:05.187Z,996.3
2017-08-07T05:53:05.845Z,996.3
2017-08-07T05:54:06.752Z,996.2
2017-08-07T05:55:07.411Z,996.3
2017-08-07T05:56:08.073Z,996.3
2017-08-07T05:57:08.732Z,996.3
2017-08-07T05:58:09.427Z,996.3
2017-08-07T05:59:10.334Z,996.2
2017-08-07T06:00:10.992Z,996.3
2017-08-07T06:01:11.649Z,996.3
2017-08-07T06:02:12.311Z,996.2
2017-08-07T06:03:12.972Z,996.2
2017-08-07T06:04:13.879Z,996.2
2017-08-07T06:05:14.539Z,996.2
2017-08-07T06:06:15.197Z,996.2
2017-08-07T06:07:15.858Z,996.2
2017-08-07T06:08:16.518Z,996.2
2017-08-07T06:09:17.476Z,996.2
2017-08-07T06:10:18.133Z,996.2
2017-08-07T06:11:18.792Z,996.2
2017-08-07T06:12:19.451Z,996.2
2017-08-07T06:13:20.146Z,996.2
2017-08-07T06:14:21.104Z,996.2
2017-08-07T06:15:21.762Z,996.2
2017-08-07T06:16:22.421Z,996.2
2017-08-07T06:17:23.079Z,996.2
2017-08-07T06:18:23.739Z,996.2
2017-08-07T06:19:24.707Z,996.2
2017-08-07T06:20:25.358Z,996.2
2017-08-07T06:21:26.018Z,996.2
2017-08-07T06:22:26.677Z,996.2
2017-08-07T06:23:27.335Z,996.2
2017-08-07T06:24:28.332Z,996.2
2017-08-07T06:25:28.992Z,996.2
2017-08-07T06:26:29.650Z,996.2
2017-08-07T06:27:30.307Z,996.2
2017-08-07T06:28:30.968Z,996.2
2017-08-07T06:29:31.928Z,996.2
2017-08-07T06:30:32.588Z,996.2
2017-08-07T06:31:33.282Z,996.2
2017-08-07T06:32:33.940Z,996.2
2017-08-07T06:33:34.603Z,996.2
2017-08-07T06:34:35.515Z,996.2
2017-08-07T06:35:36.211Z,996.2
2017-08-07T06:36:36.871Z,996.2
2017-08-07T06:37:37.563Z,996.2
2017-08-07T06:38:38.223Z,996.2
2017-08-07T06:39:39.183Z,996.1
2017-08-07T06:40:39.844Z,996.2
2017-08-07T06:41:40.504Z,996.2
2017-08-07T06:42:41.164Z,996.2
2017-08-07T06:43:41.824Z,996.2
2017-08-07T06:44:42.735Z,996.1
2017-08-07T06:45:43.395Z,996.1
2017-08-07T06:46:44.054Z,996.2
2017-08-07T06:47:44.714Z,996.1
2017-08-07T06:48:45.373Z,996.1
2017-08-07T06:49:46.282Z,996.1
2017-08-07T06:50:46.947Z,996.1
2017-08-07T06:51:47.608Z,996.1
2017-08-07T06:52:48.266Z,996.1
2017-08-07T06:53:48.926Z,996.1
2017-08-07T06:54:49.872Z,996.1
2017-08-07T06:55:50.568Z,996.1
2017-08-07T06:56:51.228Z,996.0
2017-08-07T06:57:51.929Z,996.1
2017-08-07T06:58:52.584Z,996.1
2017-08-07T06:59:53.546Z,996.1
2017-08-07T07:00:54.207Z,996.0
2017-08-07T07:01:54.868Z,996.1
2017-08-07T07:02:55.528Z,996.1
2017-08-07T07:03:56.192Z,996.0
2017-08-07T07:04:57.100Z,996.0
2017-08-07T07:05:57.760Z,996.0
2017-08-07T07:06:58.421Z,996.0
2017-08-07T07:07:59.081Z,996.0
2017-08-07T07:08:59.741Z,996.0
2017-08-07T07:10:00.702Z,996.0
2017-08-07T07:11:01.365Z,996.0
2017-08-07T07:12:02.022Z,996.0
2017-08-07T07:13:02.683Z,996.0
2017-08-07T07:14:03.345Z,996.0
2017-08-07T07:15:04.256Z,996.0
2017-08-07T07:16:04.921Z,996.0
2017-08-07T07:17:05.586Z,995.9
2017-08-07T07:18:06.242Z,995.9
2017-08-07T07:19:06.903Z,995.9
2017-08-07T07:20:07.864Z,995.9
2017-08-07T07:21:08.523Z,995.9
2017-08-07T07:22:09.186Z,995.9
2017-08-07T07:23:09.845Z,995.9
2017-08-07T07:24:10.520Z,995.9
2017-08-07T07:25:11.434Z,995.9
2017-08-07T07:26:12.091Z,995.9
2017-08-07T07:27:12.752Z,995.9
2017-08-07T07:28:13.416Z,996.0
2017-08-07T07:29:14.081Z,995.9
2017-08-07T07:30:15.029Z,995.9
2017-08-07T07:31:15.691Z,995.9
2017-08-07T07:32:16.353Z,995.9
2017-08-07T07:33:17.018Z,995.9
2017-08-07T07:34:17.713Z,995.9
2017-08-07T07:35:18.677Z,995.9
2017-08-07T07:36:19.336Z,995.8
2017-08-07T07:37:19.997Z,995.8
2017-08-07T07:38:20.657Z,995.8
2017-08-07T07:39:21.321Z,995.8
2017-08-07T07:40:22.285Z,995.8
2017-08-07T07:41:22.979Z,995.7
2017-08-07T07:42:23.640Z,995.7
2017-08-07T07:43:24.303Z,995.7
2017-08-07T07:44:24.967Z,995.8
2017-08-07T07:45:25.931Z,995.7
2017-08-07T07:46:26.593Z,995.7
2017-08-07T07:47:27.255Z,995.7
2017-08-07T07:48:27.917Z,995.7
2017-08-07T07:49:28.579Z,995.7
2017-08-07T07:50:29.542Z,995.7
2017-08-07T07:51:30.206Z,995.7
2017-08-07T07:52:30.868Z,995.7
2017-08-07T07:53:31.527Z,995.7
2017-08-07T07:54:32.190Z,995.6
2017-08-07T07:55:33.101Z,995.6
2017-08-07T07:56:33.766Z,995.6
2017-08-07T07:57:34.428Z,995.6
2017-08-07T07:58:35.126Z,995.6
2017-08-07T07:59:35.786Z,995.6
2017-08-07T08:00:36.702Z,995.6
2017-08-07T08:01:37.363Z,995.6
2017-08-07T08:02:38.026Z,995.6
2017-08-07T08:03:38.689Z,995.6
2017-08-07T08:04:39.351Z,995.6
2017-08-07T08:05:40.266Z,995.6
2017-08-07T08:06:40.935Z,995.5
2017-08-07T08:07:41.598Z,995.6
2017-08-07T08:08:42.261Z,995.5
2017-08-07T08:09:42.924Z,995.5
2017-08-07T08:10:43.838Z,995.5
2017-08-07T08:11:44.501Z,995.5
2017-08-07T08:12:45.167Z,995.5
2017-08-07T08:13:45.825Z,995.5
2017-08-07T08:14:46.495Z,995.5
2017-08-07T08:15:47.405Z,995.5
2017-08-07T08:16:48.070Z,995.5
2017-08-07T08:17:48.741Z,995.5
2017-08-07T08:18:49.408Z,995.5
2017-08-07T08:19:50.069Z,995.5
2017-08-07T08:20:50.982Z,995.5
2017-08-07T08:21:51.646Z,995.5
2017-08-07T08:22:52.310Z,995.5
2017-08-07T08:23:52.977Z,995.5
2017-08-07T08:24:53.643Z,995.5
2017-08-07T08:25:54.608Z,995.5
2017-08-07T08:26:55.273Z,995.6
2017-08-07T08:27:55.938Z,995.5
2017-08-07T08:28:56.603Z,995.5
2017-08-07T08:29:57.269Z,995.5
2017-08-07T08:30:58.234Z,995.5
2017-08-07T08:31:58.901Z,995.5
2017-08-07T08:32:59.605Z,995.5
2017-08-07T08:34:00.303Z,995.5
2017-08-07T08:35:00.969Z,995.4
2017-08-07T08:36:01.888Z,995.4
2017-08-07T08:37:02.588Z,995.4
2017-08-07T08:38:03.252Z,995.4
2017-08-07T08:39:03.919Z,995.4
2017-08-07T08:40:04.583Z,995.4
2017-08-07T08:41:05.554Z,995.4
2017-08-07T08:42:06.219Z,995.4
2017-08-07T08:43:06.887Z,995.4
2017-08-07T08:44:07.551Z,995.4
2017-08-07T08:45:08.218Z,995.4
2017-08-07T08:46:09.133Z,995.4
2017-08-07T08:47:09.803Z,995.3
2017-08-07T08:48:10.500Z,995.4
2017-08-07T08:49:11.202Z,995.4
2017-08-07T08:50:11.876Z,995.4
2017-08-07T08:51:12.842Z,995.3
2017-08-07T08:52:13.510Z,995.3
2017-08-07T08:53:14.176Z,995.3
2017-08-07T08:54:14.877Z,995.3
2017-08-07T08:55:15.542Z,995.3
2017-08-07T08:56:16.508Z,995.3
2017-08-07T08:57:17.174Z,995.4
2017-08-07T08:58:17.841Z,995.4
2017-08-07T08:59:18.507Z,995.4
2017-08-07T09:00:19.174Z,995.3
2017-08-07T09:01:20.090Z,995.3
2017-08-07T09:02:20.756Z,995.3
2017-08-07T09:03:21.423Z,995.3
2017-08-07T09:04:22.087Z,995.3
2017-08-07T09:05:22.755Z,995.3
2017-08-07T09:06:23.671Z,995.2
2017-08-07T09:07:24.337Z,995.3
2017-08-07T09:08:25.039Z,995.4
2017-08-07T09:09:25.706Z,995.3
2017-08-07T09:10:26.373Z,995.3
2017-08-07T09:11:27.291Z,995.3
2017-08-07T09:12:27.957Z,995.2
2017-08-07T09:13:28.627Z,995.2
2017-08-07T09:14:29.288Z,995.2
2017-08-07T09:15:29.962Z,995.2
2017-08-07T09:16:30.873Z,995.1
2017-08-07T09:17:31.539Z,995.2
2017-08-07T09:18:32.205Z,995.2
2017-08-07T09:19:32.873Z,995.2
2017-08-07T09:20:33.543Z,995.2
2017-08-07T09:21:34.456Z,995.2
2017-08-07T09:22:35.122Z,995.2
2017-08-07T09:23:35.786Z,995.2
2017-08-07T09:24:36.453Z,995.2
2017-08-07T09:25:37.121Z,995.2
2017-08-07T09:26:38.086Z,995.2
2017-08-07T09:27:38.753Z,995.1
2017-08-07T09:28:39.425Z,995.2
2017-08-07T09:29:40.093Z,995.1
2017-08-07T09:30:40.758Z,995.1
2017-08-07T09:31:41.676Z,995.1
2017-08-07T09:32:42.347Z,995.1
2017-08-07T09:33:43.011Z,995.1
2017-08-07T09:34:43.675Z,995.1
2017-08-07T09:35:44.342Z,995.1
2017-08-07T09:36:45.344Z,995.1
2017-08-07T09:37:46.010Z,995.0
2017-08-07T09:38:46.679Z,995.0
2017-08-07T09:39:47.347Z,995.0
2017-08-07T09:40:48.014Z,995.0
2017-08-07T09:41:48.982Z,995.0
2017-08-07T09:42:49.650Z,995.0
2017-08-07T09:43:50.316Z,995.0
2017-08-07T09:44:50.991Z,995.0
2017-08-07T09:45:51.661Z,995.0
2017-08-07T09:46:52.634Z,995.0
2017-08-07T09:47:53.341Z,995.1
2017-08-07T09:48:54.010Z,995.3
2017-08-07T09:49:54.683Z,995.5
2017-08-07T09:50:55.354Z,995.6
2017-08-07T09:51:56.277Z,995.7
2017-08-07T09:52:56.948Z,995.7
2017-08-07T09:53:57.622Z,995.8
2017-08-07T09:54:58.300Z,995.8
2017-08-07T09:55:58.972Z,995.8
2017-08-07T09:56:59.896Z,995.9
2017-08-07T09:58:00.567Z,995.8
2017-08-07T09:59:01.238Z,995.9
2017-08-07T10:00:01.915Z,995.9
2017-08-07T10:01:02.588Z,995.9
2017-08-07T10:02:03.510Z,995.9
2017-08-07T10:03:04.183Z,995.9
2017-08-07T10:04:04.858Z,995.9
2017-08-07T10:05:05.570Z,995.9
2017-08-07T10:06:06.254Z,995.9
2017-08-07T10:07:07.177Z,995.9
2017-08-07T10:08:07.849Z,995.9
2017-08-07T10:09:08.521Z,995.9
2017-08-07T10:10:09.193Z,995.9
2017-08-07T10:11:09.872Z,995.9
2017-08-07T10:12:10.798Z,995.9
2017-08-07T10:13:11.509Z,995.9
2017-08-07T10:14:12.181Z,994.9
2017-08-07T10:15:12.857Z,994.9
2017-08-07T10:16:13.523Z,994.9
2017-08-07T10:17:14.494Z,994.8
2017-08-07T10:18:15.164Z,994.9
2017-08-07T10:19:15.834Z,994.9
2017-08-07T10:20:16.506Z,994.9
2017-08-07T10:21:17.175Z,994.8
2017-08-07T10:22:18.145Z,994.8
2017-08-07T10:23:18.815Z,994.8
2017-08-07T10:24:19.484Z,994.8
2017-08-07T10:25:20.152Z,994.8
2017-08-07T10:26:20.823Z,994.9
2017-08-07T10:27:21.752Z,996.0
2017-08-07T10:28:22.418Z,996.0
2017-08-07T10:29:23.088Z,996.1
2017-08-07T10:30:23.761Z,996.2
2017-08-07T10:31:24.433Z,996.3
2017-08-07T10:32:25.357Z,996.3
2017-08-07T10:33:26.070Z,996.4
2017-08-07T10:34:26.738Z,996.4
2017-08-07T10:35:27.407Z,996.5
2017-08-07T10:36:28.078Z,996.6
2017-08-07T10:37:29.051Z,996.7
2017-08-07T10:38:29.724Z,996.7
2017-08-07T10:39:30.397Z,996.8
2017-08-07T10:40:31.069Z,997.0
2017-08-07T10:41:31.744Z,997.0
2017-08-07T10:42:32.719Z,997.0
2017-08-07T10:43:33.393Z,997.1
2017-08-07T10:44:34.069Z,997.0
2017-08-07T10:45:34.741Z,997.1
2017-08-07T10:46:35.412Z,995.0
2017-08-07T10:47:36.337Z,996.0
2017-08-07T10:48:37.007Z,994.9
2017-08-07T10:49:37.682Z,997.0
2017-08-07T10:50:38.357Z,997.0
2017-08-07T10:51:39.039Z,996.9
2017-08-07T10:52:39.954Z,996.8
2017-08-07T10:53:40.629Z,996.8
2017-08-07T10:54:41.303Z,996.8
2017-08-07T10:55:41.978Z,996.8
2017-08-07T10:56:42.649Z,994.7
2017-08-07T10:57:43.573Z,995.1
2017-08-07T10:58:44.246Z,995.7
2017-08-07T10:59:44.952Z,995.2
2017-08-07T11:00:45.624Z,995.6
2017-08-07T11:01:46.298Z,995.9
2017-08-07T11:02:47.223Z,994.6
2017-08-07T11:03:47.932Z,995.2
2017-08-07T11:04:48.604Z,995.6
2017-08-07T11:05:49.279Z,995.3
2017-08-07T11:06:49.945Z,994.6
2017-08-07T11:07:50.870Z,996.2
2017-08-07T11:08:51.542Z,996.1
2017-08-07T11:09:52.213Z,996.1
2017-08-07T11:10:52.922Z,996.1
2017-08-07T11:11:53.593Z,996.2
2017-08-07T11:12:54.565Z,996.2
2017-08-07T11:13:55.236Z,994.5
2017-08-07T11:14:55.910Z,994.7
2017-08-07T11:15:56.584Z,995.9
2017-08-07T11:16:57.255Z,994.5
2017-08-07T11:17:58.177Z,994.5
2017-08-07T11:18:58.861Z,994.5
2017-08-07T11:19:59.536Z,995.1
2017-08-07T11:21:00.205Z,994.4
2017-08-07T11:22:00.874Z,994.4
2017-08-07T11:23:01.793Z,994.3
2017-08-07T11:24:02.463Z,994.4
2017-08-07T11:25:03.132Z,994.7
2017-08-07T11:26:03.803Z,994.7
2017-08-07T11:27:04.474Z,994.7
2017-08-07T11:28:05.392Z,994.3
2017-08-07T11:29:06.062Z,994.2
2017-08-07T11:30:06.733Z,994.2
2017-08-07T11:31:07.400Z,994.2
2017-08-07T11:32:08.069Z,994.2
2017-08-07T11:33:08.994Z,994.7
2017-08-07T11:34:09.661Z,994.6
2017-08-07T11:35:10.331Z,994.6
2017-08-07T11:36:11.003Z,994.6
2017-08-07T11:37:11.673Z,994.6
2017-08-07T11:38:12.646Z,994.3
2017-08-07T11:39:13.346Z,994.4
2017-08-07T11:40:14.019Z,994.5
2017-08-07T11:41:14.691Z,994.5
2017-08-07T11:42:15.360Z,994.5
2017-08-07T11:43:16.365Z,994.5
2017-08-07T11:44:17.072Z,994.5
2017-08-07T11:45:17.744Z,994.4
2017-08-07T11:46:18.415Z,994.4
2017-08-07T11:47:19.086Z,994.4
2017-08-07T11:48:20.010Z,994.4
2017-08-07T11:49:20.681Z,994.4
2017-08-07T11:50:21.393Z,994.4
2017-08-07T11:51:22.063Z,994.0
2017-08-07T11:52:22.734Z,994.0
2017-08-07T11:53:23.708Z,994.0
2017-08-07T11:54:24.379Z,994.1
2017-08-07T11:55:25.053Z,994.0
2017-08-07T11:56:25.728Z,993.9
2017-08-07T11:57:26.399Z,993.9
2017-08-07T11:58:27.385Z,993.9
2017-08-07T11:59:28.044Z,994.0
2017-08-07T12:00:28.715Z,994.0
2017-08-07T12:01:29.384Z,994.2
2017-08-07T12:02:30.057Z,994.4
2017-08-07T12:03:30.980Z,994.4
2017-08-07T12:04:31.650Z,994.4
2017-08-07T12:05:32.320Z,994.3
2017-08-07T12:06:32.988Z,994.4
2017-08-07T12:07:33.658Z,994.3
2017-08-07T12:08:34.579Z,994.1
2017-08-07T12:09:35.249Z,993.9
2017-08-07T12:10:35.920Z,993.9
2017-08-07T12:11:36.596Z,994.4
2017-08-07T12:12:37.299Z,993.9
2017-08-07T12:13:38.272Z,993.9
2017-08-07T12:14:38.944Z,994.0
2017-08-07T12:15:39.614Z,994.4
2017-08-07T12:16:40.285Z,994.4
2017-08-07T12:17:40.955Z,994.4
2017-08-07T12:18:41.875Z,994.5
2017-08-07T12:19:42.545Z,994.0
2017-08-07T12:20:43.213Z,994.3
2017-08-07T12:21:43.882Z,994.6
2017-08-07T12:22:44.554Z,994.5
2017-08-07T12:23:45.472Z,994.0
2017-08-07T12:24:46.145Z,994.6
2017-08-07T12:25:46.814Z,994.1
2017-08-07T12:26:47.484Z,994.0
2017-08-07T12:27:48.154Z,994.3
2017-08-07T12:28:49.124Z,993.8
2017-08-07T12:29:49.796Z,994.3
2017-08-07T12:30:50.502Z,993.9
2017-08-07T12:31:51.174Z,994.5
2017-08-07T12:32:51.845Z,994.5
2017-08-07T12:33:52.767Z,994.4
2017-08-07T12:34:53.442Z,994.4
2017-08-07T12:35:54.113Z,994.0
2017-08-07T12:36:54.785Z,994.4
2017-08-07T12:37:55.456Z,993.8
2017-08-07T12:38:56.431Z,994.2
2017-08-07T12:39:57.103Z,994.0
2017-08-07T12:40:57.777Z,994.0
2017-08-07T12:41:58.451Z,994.0
2017-08-07T12:42:59.123Z,994.0
2017-08-07T12:44:00.044Z,993.8
2017-08-07T12:45:00.719Z,993.9
2017-08-07T12:46:01.392Z,993.9
2017-08-07T12:47:02.066Z,993.9
2017-08-07T12:48:02.739Z,993.6
2017-08-07T12:49:03.659Z,993.6
2017-08-07T12:50:04.335Z,993.9
2017-08-07T12:51:05.008Z,993.9
2017-08-07T12:52:05.681Z,993.9
2017-08-07T12:53:06.357Z,993.8
2017-08-07T12:54:07.278Z,993.5
2017-08-07T12:55:07.950Z,993.5
2017-08-07T12:56:08.620Z,993.6
2017-08-07T12:57:09.291Z,993.7
2017-08-07T12:58:09.962Z,993.5
2017-08-07T12:59:10.887Z,993.5
2017-08-07T13:00:11.556Z,993.8
2017-08-07T13:01:12.231Z,993.7
2017-08-07T13:02:12.899Z,993.8